Time;durP1;ratioP1;P1;durP2;ratioP2;P2;SDS_P1;SDS_P2;PMS_P1;PMS_P2;Temp;Humidity;BMP_temperature;BMP_pressure;BME280_temperature;BME280_humidity;BME280_pressure;Samples;Min_cycle;Max_cycle;Signal;HPM_P1;HPM_P2
2022/11/08 00:02:32;;;;;;;7.07;5.10;;;13.50;64.90;;;;;;5091323;28;20688;-50
2022/11/08 00:04:57;;;;;;;5.33;4.83;;;13.50;64.70;;;;;;5085972;28;20572;-51
2022/11/08 00:15:37;;;;;;;5.50;4.43;;;12.90;67.50;;;;;;5089771;28;20484;-54
2022/11/08 00:18:06;;;;;;;6.50;5.77;;;13.00;67.60;;;;;;5091813;28;20445;-55
2022/11/08 00:20:32;;;;;;;6.03;4.53;;;13.10;67.00;;;;;;5102196;28;20433;-53
2022/11/08 00:22:58;;;;;;;6.07;5.20;;;12.90;68.30;;;;;;5090251;28;20424;-51
2022/11/08 00:25:23;;;;;;;9.57;5.70;;;12.90;67.40;;;;;;5089247;28;20231;-54
2022/11/08 00:27:49;;;;;;;6.60;4.97;;;13.00;67.30;;;;;;5091103;28;20312;-50
2022/11/08 00:30:14;;;;;;;9.50;5.50;;;13.00;66.70;;;;;;5092511;28;20191;-52
2022/11/08 00:32:40;;;;;;;8.00;4.40;;;12.80;67.10;;;;;;5091375;28;20199;-50
2022/11/08 00:35:06;;;;;;;6.17;5.17;;;12.70;67.40;;;;;;5091942;28;20646;-51
2022/11/08 00:37:31;;;;;;;8.20;5.53;;;12.80;67.10;;;;;;5092909;28;20198;-52
2022/11/08 00:39:57;;;;;;;6.37;5.10;;;13.00;66.70;;;;;;5090856;28;20934;-50
2022/11/08 00:42:22;;;;;;;7.50;4.80;;;13.10;66.00;;;;;;5090818;28;20199;-52
2022/11/08 00:44:48;;;;;;;6.50;5.13;;;13.30;65.40;;;;;;5090962;28;20195;-52
2022/11/08 00:47:14;;;;;;;9.13;5.27;;;13.30;64.90;;;;;;5091480;28;20226;-53
2022/11/08 00:49:39;;;;;;;5.23;4.27;;;13.20;64.60;;;;;;5087361;28;20194;-53
2022/11/08 00:52:05;;;;;;;5.33;4.73;;;13.10;64.80;;;;;;5089715;28;20633;-53
2022/11/08 00:54:30;;;;;;;6.60;4.63;;;13.10;65.00;;;;;;5091270;28;20207;-50
2022/11/08 00:56:56;;;;;;;4.73;4.30;;;13.20;64.70;;;;;;5090502;28;20314;-53
2022/11/08 00:59:21;;;;;;;6.10;4.50;;;13.00;65.00;;;;;;5090187;28;20571;-53
2022/11/08 01:01:47;;;;;;;8.87;5.57;;;13.00;65.20;;;;;;5091467;28;20195;-52
2022/11/08 01:04:16;;;;;;;7.80;5.50;;;13.10;64.80;;;;;;5090755;28;20553;-50
2022/11/08 01:06:41;;;;;;;5.10;4.60;;;12.90;64.60;;;;;;5088587;28;20238;-50
2022/11/08 01:09:07;;;;;;;6.10;4.43;;;12.80;65.00;;;;;;5090771;28;20925;-52
2022/11/08 01:11:33;;;;;;;6.53;4.87;;;12.70;66.20;;;;;;5091302;28;20191;-51
2022/11/08 01:14:00;;;;;;;4.53;4.10;;;12.70;66.00;;;;;;5089378;28;20227;-54
2022/11/08 01:16:29;;;;;;;5.33;4.57;;;12.80;65.50;;;;;;5090091;28;20703;-53
2022/11/08 01:18:56;;;;;;;5.27;4.10;;;12.80;65.40;;;;;;5088723;28;20429;-54
2022/11/08 01:21:23;;;;;;;7.23;5.47;;;12.80;65.20;;;;;;5089734;28;20472;-52
2022/11/08 01:23:49;;;;;;;8.57;4.70;;;12.60;65.70;;;;;;5087036;28;20480;-53
2022/11/08 01:26:17;;;;;;;6.90;4.77;;;12.60;67.20;;;;;;5090137;28;20870;-51
2022/11/08 01:28:43;;;;;;;7.20;5.73;;;12.70;66.00;;;;;;5087485;28;20516;-50
2022/11/08 01:31:19;;;;;;;10.40;4.73;;;12.90;65.30;;;;;;5088568;28;20496;-53
2022/11/08 01:33:44;;;;;;;7.40;4.90;;;12.90;64.40;;;;;;5090357;28;20470;-53
2022/11/08 01:36:14;;;;;;;5.13;4.63;;;12.80;65.20;;;;;;5093838;28;20444;-50
2022/11/08 01:38:40;;;;;;;6.33;4.77;;;12.20;67.30;;;;;;5087256;28;20473;-50
2022/11/08 01:41:07;;;;;;;4.93;4.53;;;12.30;67.50;;;;;;5086761;28;20457;-54
2022/11/08 01:43:35;;;;;;;6.83;5.20;;;12.50;67.20;;;;;;5087073;28;20437;-53
2022/11/08 01:46:26;;;;;;;5.83;4.50;;;12.60;66.40;;;;;;5089737;28;20441;-53
2022/11/08 01:49:08;;;;;;;4.37;3.97;;;12.50;66.50;;;;;;5085704;28;22080;-50
2022/11/08 01:51:53;;;;;;;7.50;5.70;;;12.60;66.60;;;;;;5089749;28;20449;-52
2022/11/08 01:54:31;;;;;;;7.43;5.23;;;12.70;65.90;;;;;;5085558;28;21159;-50
2022/11/08 01:56:59;;;;;;;7.73;5.17;;;12.80;65.00;;;;;;5089931;28;20499;-53
2022/11/08 01:59:25;;;;;;;5.43;4.77;;;12.90;64.80;;;;;;5086281;28;20440;-53
2022/11/08 02:01:51;;;;;;;4.87;4.23;;;13.00;64.30;;;;;;5090224;28;20445;-50
2022/11/08 02:04:17;;;;;;;6.13;4.80;;;13.10;64.00;;;;;;5099128;28;20265;-54
2022/11/08 02:06:43;;;;;;;7.10;5.03;;;13.20;63.60;;;;;;5094763;28;20570;-52
2022/11/08 02:09:12;;;;;;;5.93;5.20;;;13.20;63.20;;;;;;5090340;28;20277;-54
2022/11/08 02:11:39;;;;;;;7.17;5.10;;;13.00;63.50;;;;;;5081025;28;20437;-53
2022/11/08 02:14:06;;;;;;;8.10;5.17;;;13.00;63.60;;;;;;5085747;28;20445;-50
2022/11/08 02:16:32;;;;;;;6.70;4.80;;;13.00;63.40;;;;;;5093438;28;20457;-51
2022/11/08 02:18:57;;;;;;;6.33;4.20;;;13.10;63.20;;;;;;5089240;28;20444;-53
2022/11/08 02:21:47;;;;;;;5.00;4.50;;;13.00;63.00;;;;;;5092341;28;20197;-53
2022/11/08 02:24:13;;;;;;;4.53;4.13;;;12.80;63.50;;;;;;5086067;28;20284;-50
2022/11/08 02:26:40;;;;;;;8.63;4.70;;;12.80;63.90;;;;;;5093262;28;20500;-53
2022/11/08 02:29:23;;;;;;;5.43;4.23;;;12.80;63.60;;;;;;5093128;28;20453;-51
2022/11/08 02:31:49;;;;;;;6.17;4.50;;;12.80;63.70;;;;;;5094849;28;20444;-51
2022/11/08 02:34:14;;;;;;;5.53;4.17;;;12.70;63.80;;;;;;5093662;28;20441;-53
2022/11/08 02:36:48;;;;;;;4.73;4.17;;;12.60;64.20;;;;;;5094692;28;20591;-51
2022/11/08 02:39:13;;;;;;;5.73;4.23;;;12.60;63.90;;;;;;5091286;28;20190;-52
2022/11/08 02:41:39;;;;;;;4.50;4.10;;;12.40;65.00;;;;;;5091806;28;20444;-52
2022/11/08 02:44:04;;;;;;;4.73;3.60;;;12.20;65.60;;;;;;5093897;28;20277;-52
2022/11/08 02:46:30;;;;;;;11.33;3.80;;;12.20;66.30;;;;;;5092755;28;20226;-51
2022/11/08 02:48:55;;;;;;;4.40;3.90;;;12.10;66.10;;;;;;5090849;28;20219;-50
2022/11/08 02:51:21;;;;;;;5.20;4.23;;;12.00;66.70;;;;;;5091920;28;20196;-54
2022/11/08 02:53:47;;;;;;;4.63;4.10;;;11.90;67.40;;;;;;5092331;28;20639;-54
2022/11/08 02:56:13;;;;;;;6.20;4.30;;;11.80;68.20;;;;;;5094151;28;20320;-52
2022/11/08 02:58:38;;;;;;;4.60;4.07;;;11.80;68.30;;;;;;5090335;28;21190;-51
2022/11/08 03:01:04;;;;;;;5.97;3.63;;;11.70;68.30;;;;;;5092203;28;20651;-51
2022/11/08 03:03:30;;;;;;;4.50;3.57;;;11.70;68.20;;;;;;5091475;28;20198;-50
2022/11/08 03:05:56;;;;;;;5.20;3.73;;;11.80;68.10;;;;;;5094682;28;20188;-51
2022/11/08 03:08:22;;;;;;;5.37;3.47;;;11.80;68.10;;;;;;5091099;28;20203;-51
2022/11/08 03:10:47;;;;;;;6.37;4.23;;;11.80;67.80;;;;;;5094547;28;20482;-50
2022/11/08 03:13:13;;;;;;;3.47;2.90;;;11.60;68.50;;;;;;5093013;28;20274;-54
2022/11/08 03:15:38;;;;;;;5.80;3.33;;;11.40;69.10;;;;;;5084382;28;20217;-53
2022/11/08 03:18:04;;;;;;;4.17;3.67;;;11.50;69.20;;;;;;5092639;28;20602;-52
2022/11/08 03:20:30;;;;;;;3.67;3.37;;;11.60;68.40;;;;;;5091680;28;20196;-51
2022/11/08 03:23:00;;;;;;;4.13;3.60;;;11.60;68.30;;;;;;5090882;28;20238;-51
2022/11/08 03:25:26;;;;;;;9.20;3.97;;;11.50;68.50;;;;;;5092404;28;20242;-54
2022/11/08 03:27:51;;;;;;;8.13;3.93;;;11.50;68.70;;;;;;5093224;28;20971;-51
2022/11/08 03:30:17;;;;;;;4.60;3.70;;;11.40;69.10;;;;;;5091180;28;20685;-51
2022/11/08 03:32:46;;;;;;;5.67;4.07;;;11.30;69.30;;;;;;5093198;28;20202;-51
2022/11/08 03:35:12;;;;;;;4.00;3.60;;;11.40;69.30;;;;;;5089024;28;20556;-50
2022/11/08 03:37:38;;;;;;;6.33;3.63;;;11.60;69.10;;;;;;5101837;28;20436;-54
2022/11/08 03:40:04;;;;;;;4.60;3.10;;;11.60;67.80;;;;;;5090625;28;20446;-54
2022/11/08 03:42:30;;;;;;;5.83;4.03;;;11.70;67.60;;;;;;5083801;28;20199;-51
2022/11/08 03:44:55;;;;;;;4.13;3.40;;;11.60;67.80;;;;;;5091854;28;20817;-50
2022/11/08 03:47:21;;;;;;;6.00;4.40;;;11.90;67.30;;;;;;5093721;28;20231;-51
2022/11/08 03:49:46;;;;;;;10.37;4.67;;;12.00;66.40;;;;;;5087425;28;20692;-52
2022/11/08 03:52:12;;;;;;;4.03;3.60;;;12.20;65.50;;;;;;5090842;28;20197;-50
2022/11/08 03:54:37;;;;;;;4.70;4.30;;;12.30;64.70;;;;;;5087165;28;20237;-51
2022/11/08 03:57:03;;;;;;;5.43;4.00;;;12.20;64.20;;;;;;5091544;28;20663;-51
2022/11/08 03:59:29;;;;;;;4.40;4.00;;;12.20;63.50;;;;;;5094218;28;20225;-53
2022/11/08 04:01:54;;;;;;;4.70;3.57;;;12.20;63.60;;;;;;5092858;28;20183;-53
2022/11/08 04:04:20;;;;;;;5.17;4.70;;;12.30;63.30;;;;;;5084158;28;20206;-53
2022/11/08 04:06:46;;;;;;;5.03;4.17;;;12.30;62.70;;;;;;5088283;28;20225;-51
2022/11/08 04:09:11;;;;;;;4.87;4.20;;;12.30;62.70;;;;;;5103087;28;20197;-52
2022/11/08 04:17:05;;;;;;;4.30;3.33;;;12.20;62.60;;;;;;5090189;28;20463;-53
2022/11/08 04:22:15;;;;;;;4.77;4.30;;;12.30;62.50;;;;;;5079396;28;20298;-50
2022/11/08 04:24:40;;;;;;;4.20;3.80;;;12.30;62.20;;;;;;5082571;28;20995;-50
2022/11/08 04:27:06;;;;;;;5.83;4.20;;;12.40;61.90;;;;;;5096294;28;20223;-52
2022/11/08 04:29:32;;;;;;;5.50;4.83;;;12.40;61.60;;;;;;5089811;28;20187;-55
2022/11/08 04:31:57;;;;;;;6.10;5.50;;;12.40;61.40;;;;;;5087361;28;20241;-50
2022/11/08 04:34:23;;;;;;;6.60;5.23;;;12.30;61.20;;;;;;5087615;28;20272;-51
2022/11/08 04:36:48;;;;;;;4.23;3.83;;;12.40;61.10;;;;;;5085178;28;20206;-50
2022/11/08 04:39:14;;;;;;;6.77;4.47;;;12.40;60.70;;;;;;5084856;28;20195;-51
2022/11/08 04:41:39;;;;;;;4.17;3.80;;;12.20;60.90;;;;;;5093593;28;20195;-52
2022/11/08 04:44:05;;;;;;;5.27;4.77;;;12.10;61.10;;;;;;5093080;28;20195;-53
2022/11/08 04:46:31;;;;;;;8.00;7.20;;;11.80;62.50;;;;;;5094545;28;20235;-52
2022/11/08 04:48:58;;;;;;;9.40;8.50;;;11.60;62.90;;;;;;5087787;28;20195;-53
2022/11/08 04:51:29;;;;;;;12.10;10.70;;;11.50;64.00;;;;;;5084797;28;20328;-53
2022/11/08 04:53:57;;;;;;;7.23;6.60;;;11.40;63.90;;;;;;5088417;28;20442;-51
2022/11/08 04:56:24;;;;;;;10.30;6.37;;;11.40;63.40;;;;;;5084881;28;20556;-51
2022/11/08 04:58:55;;;;;;;5.43;4.70;;;11.40;63.80;;;;;;5089893;28;20988;-50
2022/11/08 05:01:23;;;;;;;5.47;4.93;;;11.10;64.40;;;;;;5084808;28;20446;-53
2022/11/08 05:03:50;;;;;;;4.80;4.40;;;11.10;64.70;;;;;;5089006;28;20460;-54
2022/11/08 05:06:22;;;;;;;5.27;4.77;;;11.00;65.10;;;;;;5087486;28;20547;-54
2022/11/08 05:08:48;;;;;;;5.43;4.30;;;11.10;64.50;;;;;;5097931;28;20461;-53
2022/11/08 05:11:19;;;;;;;5.50;4.50;;;10.90;65.00;;;;;;5091262;28;20536;-52
2022/11/08 05:13:45;;;;;;;5.70;4.27;;;10.90;65.60;;;;;;5084092;28;20882;-50
2022/11/08 05:16:13;;;;;;;5.83;4.60;;;10.90;65.30;;;;;;5088259;28;20468;-51
2022/11/08 05:18:39;;;;;;;5.03;4.10;;;10.60;65.30;;;;;;5088151;28;20794;-51
2022/11/08 05:23:51;;;;;;;5.60;4.30;;;10.60;66.80;;;;;;5088807;28;20489;-51
2022/11/08 05:26:18;;;;;;;4.70;4.30;;;10.40;66.90;;;;;;5085834;28;20441;-52
2022/11/08 05:28:43;;;;;;;4.40;3.83;;;10.50;67.20;;;;;;5074899;28;20785;-52
2022/11/08 05:31:09;;;;;;;5.33;3.93;;;10.50;66.60;;;;;;5085177;28;20532;-50
2022/11/08 05:33:35;;;;;;;4.63;4.23;;;10.60;66.90;;;;;;5088269;28;20274;-51
2022/11/08 05:36:07;;;;;;;4.70;3.70;;;10.60;66.00;;;;;;5086552;28;20525;-51
2022/11/08 05:38:33;;;;;;;4.57;4.00;;;10.70;66.50;;;;;;5086439;28;22307;-52
2022/11/08 05:41:10;;;;;;;4.77;4.10;;;10.60;66.00;;;;;;5090021;28;20436;-51
2022/11/08 05:43:36;;;;;;;4.23;3.63;;;10.60;67.10;;;;;;5086408;28;20182;-51
2022/11/08 05:46:02;;;;;;;8.20;4.70;;;10.80;66.90;;;;;;5087945;28;20521;-51
2022/11/08 05:48:28;;;;;;;11.63;4.83;;;10.90;66.10;;;;;;5087492;28;21028;-50
2022/11/08 05:50:54;;;;;;;4.50;4.10;;;11.00;65.40;;;;;;5090203;28;20199;-50
2022/11/08 05:53:19;;;;;;;4.33;3.93;;;11.10;64.90;;;;;;5086758;28;20201;-52
2022/11/08 05:55:45;;;;;;;5.33;4.03;;;11.10;64.50;;;;;;5080864;28;20470;-53
2022/11/08 05:58:11;;;;;;;5.70;4.43;;;11.20;65.20;;;;;;5086389;28;20199;-51
2022/11/08 06:00:36;;;;;;;6.17;4.20;;;11.10;64.50;;;;;;5087627;28;20195;-51
2022/11/08 06:03:03;;;;;;;4.70;3.43;;;11.20;64.20;;;;;;5093282;28;20193;-51
2022/11/08 06:05:29;;;;;;;4.07;3.53;;;11.30;63.80;;;;;;5093387;28;20194;-52
2022/11/08 06:07:54;;;;;;;4.60;4.10;;;11.20;63.50;;;;;;5088766;28;20480;-50
2022/11/08 06:10:23;;;;;;;6.17;4.07;;;11.10;63.80;;;;;;5089108;28;20273;-50
2022/11/08 06:12:49;;;;;;;6.53;3.80;;;11.20;63.90;;;;;;5087320;28;20272;-51
2022/11/08 06:15:15;;;;;;;5.67;4.40;;;11.20;63.40;;;;;;5083143;28;20441;-54
2022/11/08 06:17:40;;;;;;;5.37;4.13;;;11.20;63.80;;;;;;5094850;28;20282;-53
2022/11/08 06:20:08;;;;;;;4.23;3.80;;;11.30;63.40;;;;;;5082949;28;20187;-56
2022/11/08 06:22:34;;;;;;;6.17;4.10;;;11.20;66.50;;;;;;5086163;28;20223;-56
2022/11/08 06:25:00;;;;;;;6.40;4.00;;;11.40;67.30;;;;;;5077541;28;20469;-56
2022/11/08 06:27:26;;;;;;;5.00;3.27;;;11.70;68.30;;;;;;5082263;28;20503;-56
2022/11/08 06:29:52;;;;;;;3.60;3.30;;;11.90;67.60;;;;;;5084893;28;20842;-55
2022/11/08 06:32:17;;;;;;;4.10;3.70;;;12.20;66.90;;;;;;5086606;28;20437;-56
2022/11/08 06:34:45;;;;;;;3.60;3.30;;;12.40;65.90;;;;;;5087494;28;20307;-56
2022/11/08 06:37:11;;;;;;;6.33;4.37;;;12.70;65.00;;;;;;5078995;28;20187;-56
2022/11/08 06:39:37;;;;;;;4.80;4.30;;;12.80;63.40;;;;;;5080252;28;20450;-56
2022/11/08 06:42:02;;;;;;;13.13;3.50;;;12.90;61.30;;;;;;5087613;28;20442;-56
2022/11/08 06:44:28;;;;;;;6.13;4.50;;;12.80;60.90;;;;;;5091616;28;20702;-56
2022/11/08 06:46:58;;;;;;;7.13;3.80;;;12.80;60.70;;;;;;5094957;28;20644;-56
2022/11/08 06:49:24;;;;;;;4.33;3.90;;;13.00;60.80;;;;;;5088024;28;20237;-55
2022/11/08 06:51:51;;;;;;;3.60;3.30;;;13.20;60.10;;;;;;5086319;28;20441;-56
2022/11/08 06:54:17;;;;;;;4.67;3.43;;;13.40;59.40;;;;;;5088778;28;20549;-56
2022/11/08 06:56:43;;;;;;;3.97;3.30;;;13.50;59.50;;;;;;5099930;28;20447;-56
2022/11/08 06:59:09;;;;;;;3.43;2.80;;;13.60;59.70;;;;;;5089347;28;20437;-56
2022/11/08 07:01:35;;;;;;;3.90;3.10;;;13.90;59.20;;;;;;5093086;28;20468;-56
2022/11/08 07:04:01;;;;;;;3.90;3.50;;;14.40;58.00;;;;;;5090963;28;20476;-56
2022/11/08 07:06:26;;;;;;;4.87;3.60;;;14.90;57.10;;;;;;5088262;28;20582;-56
2022/11/08 07:08:52;;;;;;;5.37;4.60;;;15.20;55.80;;;;;;5094107;28;20429;-57
2022/11/08 07:11:18;;;;;;;5.33;4.20;;;15.20;54.50;;;;;;5092172;28;20191;-56
2022/11/08 07:13:43;;;;;;;5.30;3.83;;;15.40;53.90;;;;;;5091597;28;20191;-56
2022/11/08 07:16:09;;;;;;;3.63;3.33;;;15.40;53.50;;;;;;5090195;28;20731;-56
2022/11/08 07:18:35;;;;;;;3.37;2.80;;;15.40;53.10;;;;;;5091335;28;20187;-55
2022/11/08 07:21:01;;;;;;;4.10;3.50;;;15.20;53.80;;;;;;5091216;28;20194;-56
2022/11/08 07:23:27;;;;;;;3.80;3.07;;;15.00;54.10;;;;;;5088806;28;20278;-57
2022/11/08 07:25:53;;;;;;;4.10;3.33;;;14.90;54.90;;;;;;5090626;28;20468;-55
2022/11/08 07:28:19;;;;;;;4.33;3.60;;;14.70;55.00;;;;;;5088965;28;20519;-56
2022/11/08 07:30:46;;;;;;;3.93;3.33;;;14.60;55.40;;;;;;5090896;28;20194;-55
2022/11/08 07:33:12;;;;;;;4.60;3.80;;;14.50;55.80;;;;;;5092870;28;20934;-55
2022/11/08 07:35:38;;;;;;;5.67;3.87;;;14.50;56.30;;;;;;5088424;28;20433;-56
2022/11/08 07:38:04;;;;;;;3.80;3.50;;;14.60;56.50;;;;;;5089833;28;20450;-56
2022/11/08 07:40:29;;;;;;;3.80;3.40;;;14.60;56.30;;;;;;5088456;28;20251;-56
2022/11/08 07:42:58;;;;;;;5.43;3.87;;;14.60;56.40;;;;;;5087575;28;20249;-57
2022/11/08 07:45:24;;;;;;;4.17;3.77;;;14.60;56.10;;;;;;5088570;28;20187;-57
2022/11/08 07:48:01;;;;;;;4.17;3.27;;;14.60;55.80;;;;;;5087968;28;20491;-57
2022/11/08 07:50:27;;;;;;;4.67;3.70;;;14.60;56.00;;;;;;5089487;28;20460;-56
2022/11/08 07:52:52;;;;;;;4.27;3.57;;;14.60;56.70;;;;;;5081967;28;20456;-55
2022/11/08 07:55:18;;;;;;;3.97;3.67;;;14.70;56.70;;;;;;5092173;28;20429;-55
2022/11/08 07:57:44;;;;;;;3.70;3.40;;;14.80;56.60;;;;;;5080836;28;20626;-57
2022/11/08 08:00:10;;;;;;;5.53;3.00;;;14.80;56.60;;;;;;5091052;28;20448;-55
2022/11/08 08:02:36;;;;;;;3.50;3.20;;;14.70;56.70;;;;;;5088446;28;20187;-56
2022/11/08 08:05:02;;;;;;;4.47;3.07;;;14.70;57.30;;;;;;5085651;28;20433;-57
2022/11/08 08:07:27;;;;;;;3.83;3.53;;;14.60;57.50;;;;;;5085743;28;20267;-55
2022/11/08 08:09:53;;;;;;;3.70;2.93;;;14.50;57.60;;;;;;5084712;28;20234;-55
2022/11/08 08:12:18;;;;;;;4.47;3.50;;;14.40;58.00;;;;;;5092086;28;20191;-57
2022/11/08 08:14:44;;;;;;;4.10;3.23;;;14.50;58.00;;;;;;5085718;28;20192;-57
2022/11/08 08:17:09;;;;;;;3.70;3.13;;;14.40;58.40;;;;;;5090358;28;20325;-55
2022/11/08 08:19:35;;;;;;;3.07;2.67;;;14.10;58.20;;;;;;5090715;28;20187;-54
2022/11/08 08:22:00;;;;;;;3.80;2.70;;;13.80;59.80;;;;;;5089190;28;20191;-53
2022/11/08 08:24:26;;;;;;;3.83;2.90;;;13.70;60.00;;;;;;5092198;28;20238;-54
2022/11/08 08:26:52;;;;;;;4.17;3.47;;;14.00;60.20;;;;;;5076248;28;20279;-53
2022/11/08 08:29:18;;;;;;;4.40;4.00;;;14.10;60.90;;;;;;5090445;28;20264;-56
2022/11/08 08:31:43;;;;;;;4.77;3.77;;;14.10;60.60;;;;;;5089220;28;20945;-55
2022/11/08 08:34:09;;;;;;;3.70;3.30;;;13.80;60.50;;;;;;5087320;28;20226;-55
2022/11/08 08:36:35;;;;;;;5.03;3.83;;;13.70;61.70;;;;;;5088798;28;20191;-54
2022/11/08 08:39:00;;;;;;;7.00;3.37;;;13.70;60.10;;;;;;5085728;28;20191;-50
2022/11/08 08:41:26;;;;;;;6.20;3.50;;;13.80;60.40;;;;;;5087136;28;20196;-55
2022/11/08 08:43:51;;;;;;;3.90;3.23;;;14.20;59.80;;;;;;5084317;28;20202;-54
2022/11/08 08:46:17;;;;;;;6.20;3.77;;;14.60;59.00;;;;;;5084988;28;20219;-52
2022/11/08 08:48:43;;;;;;;5.73;4.00;;;14.80;58.60;;;;;;5088660;28;20199;-53
2022/11/08 08:51:08;;;;;;;4.97;3.40;;;14.80;59.30;;;;;;5089012;28;20198;-54
2022/11/08 08:53:34;;;;;;;4.97;3.13;;;15.10;58.60;;;;;;5086628;28;20187;-53
2022/11/08 08:56:01;;;;;;;2.70;2.50;;;15.30;58.00;;;;;;5089217;28;20204;-52
2022/11/08 08:58:26;;;;;;;3.60;3.17;;;15.50;57.90;;;;;;5085100;28;20467;-55
2022/11/08 09:00:52;;;;;;;4.13;3.33;;;15.80;57.40;;;;;;5085042;28;20962;-53
2022/11/08 09:03:17;;;;;;;5.10;2.97;;;15.80;56.70;;;;;;5085474;28;20715;-54
2022/11/08 09:05:45;;;;;;;3.93;3.30;;;15.90;56.20;;;;;;5087231;28;20201;-55
2022/11/08 09:08:13;;;;;;;4.67;3.70;;;16.10;56.00;;;;;;5084880;28;20307;-53
2022/11/08 09:10:38;;;;;;;3.43;3.13;;;16.40;55.80;;;;;;5082531;28;20474;-54
2022/11/08 09:13:04;;;;;;;4.83;3.53;;;16.60;55.20;;;;;;5083448;28;20437;-54
2022/11/08 09:15:30;;;;;;;4.50;3.73;;;16.80;55.20;;;;;;5090363;28;20433;-53
2022/11/08 09:17:56;;;;;;;4.80;3.90;;;16.90;55.70;;;;;;5089501;28;20524;-53
2022/11/08 09:20:22;;;;;;;6.57;4.60;;;17.00;55.40;;;;;;5082943;28;20264;-54
2022/11/08 09:22:48;;;;;;;4.40;3.93;;;17.20;55.40;;;;;;5087025;28;20433;-53
2022/11/08 09:25:13;;;;;;;5.20;4.00;;;17.40;54.80;;;;;;5085019;28;20725;-49
2022/11/08 09:27:39;;;;;;;4.97;3.30;;;17.50;53.90;;;;;;5083515;28;20226;-53
2022/11/08 09:30:05;;;;;;;9.90;3.80;;;17.60;53.40;;;;;;5089917;28;20202;-54
2022/11/08 09:32:31;;;;;;;6.03;3.60;;;17.60;52.70;;;;;;5081590;28;20202;-50
2022/11/08 09:34:57;;;;;;;3.63;3.23;;;17.80;52.80;;;;;;5086422;28;20437;-51
2022/11/08 09:37:23;;;;;;;4.13;2.50;;;17.90;52.30;;;;;;5089509;28;20646;-53
2022/11/08 09:39:49;;;;;;;4.67;3.60;;;18.00;51.70;;;;;;5081961;28;20529;-54
2022/11/08 09:42:36;;;;;;;7.90;3.40;;;18.20;51.50;;;;;;5097274;28;20437;-53
2022/11/08 09:45:16;;;;;;;2.93;2.63;;;18.20;51.10;;;;;;5089441;28;20437;-54
2022/11/08 09:47:44;;;;;;;3.40;3.00;;;18.10;49.80;;;;;;5081841;28;21022;-54
2022/11/08 09:50:38;;;;;;;3.00;2.80;;;18.00;50.10;;;;;;5087923;28;20460;-54
2022/11/08 09:53:17;;;;;;;3.07;2.40;;;18.20;49.80;;;;;;5083550;28;20475;-54
2022/11/08 09:55:48;;;;;;;3.40;2.50;;;18.30;48.50;;;;;;5087890;28;20554;-53
2022/11/08 09:58:53;;;;;;;3.00;2.70;;;18.20;47.90;;;;;;5090465;28;20441;-54
2022/11/08 10:01:19;;;;;;;3.83;2.33;;;18.10;49.20;;;;;;5070984;28;20503;-55
2022/11/08 10:03:52;;;;;;;2.70;2.50;;;18.20;49.10;;;;;;5087090;28;20488;-53
2022/11/08 10:06:32;;;;;;;3.00;2.40;;;18.40;50.00;;;;;;5087950;28;20445;-53
2022/11/08 10:09:00;;;;;;;5.37;2.57;;;18.30;49.60;;;;;;5082294;28;20437;-54
2022/11/08 10:12:10;;;;;;;5.43;3.00;;;18.40;49.70;;;;;;5086478;28;20448;-53
2022/11/08 10:14:53;;;;;;;3.17;2.83;;;18.60;49.80;;;;;;5086942;28;20444;-54
2022/11/08 10:17:35;;;;;;;4.90;3.17;;;18.80;49.70;;;;;;5085881;28;20548;-54
2022/11/08 10:20:38;;;;;;;4.30;3.27;;;18.80;48.90;;;;;;5073311;28;20542;-53
2022/11/08 10:23:29;;;;;;;4.50;3.70;;;18.90;48.90;;;;;;5085143;28;20472;-54
2022/11/08 10:25:59;;;;;;;4.03;2.77;;;19.00;49.70;;;;;;5089242;28;20461;-53
2022/11/08 10:28:34;;;;;;;3.67;2.50;;;19.20;49.80;;;;;;5085801;28;20491;-53
2022/11/08 10:31:01;;;;;;;3.20;2.70;;;19.20;49.50;;;;;;5087466;28;20432;-54
2022/11/08 10:33:47;;;;;;;4.77;2.90;;;19.40;49.80;;;;;;5093433;28;20428;-53
2022/11/08 10:36:37;;;;;;;3.90;2.90;;;19.40;49.70;;;;;;5092626;28;20433;-54
2022/11/08 10:39:09;;;;;;;5.47;3.43;;;19.20;49.50;;;;;;5087430;28;20452;-54
2022/11/08 10:41:44;;;;;;;4.83;3.70;;;19.00;50.00;;;;;;5087671;28;20442;-54
2022/11/08 10:44:18;;;;;;;3.37;3.07;;;19.00;50.10;;;;;;5090899;28;20842;-53
2022/11/08 10:46:45;;;;;;;2.90;2.60;;;19.20;50.20;;;;;;5089813;28;20476;-54
2022/11/08 10:49:21;;;;;;;3.10;2.40;;;19.10;48.60;;;;;;5085787;28;20457;-55
2022/11/08 10:51:53;;;;;;;4.20;2.43;;;19.00;47.70;;;;;;5091690;28;20970;-51
2022/11/08 10:54:41;;;;;;;3.93;2.40;;;19.00;47.50;;;;;;5091902;28;20467;-53
2022/11/08 10:57:12;;;;;;;4.37;3.27;;;19.10;48.60;;;;;;5089993;28;20445;-56
2022/11/08 10:59:37;;;;;;;4.73;3.00;;;19.30;49.70;;;;;;5084962;28;20444;-52
2022/11/08 11:02:19;;;;;;;5.63;2.73;;;19.40;49.60;;;;;;5090593;28;20433;-54
2022/11/08 11:04:44;;;;;;;4.50;3.00;;;19.40;49.80;;;;;;5086439;28;20195;-54
2022/11/08 11:07:32;;;;;;;3.20;2.90;;;19.40;49.90;;;;;;5092571;28;20492;-53
2022/11/08 11:10:23;;;;;;;2.97;2.67;;;19.50;49.80;;;;;;5091382;28;20199;-53
2022/11/08 11:13:09;;;;;;;2.90;2.63;;;19.60;49.40;;;;;;5089716;28;20441;-52
2022/11/08 11:15:35;;;;;;;4.40;2.73;;;19.70;48.90;;;;;;5093188;28;20447;-55
2022/11/08 11:18:01;;;;;;;2.37;2.17;;;19.80;47.40;;;;;;5088675;28;20816;-54
2022/11/08 11:20:27;;;;;;;2.50;2.27;;;19.90;47.50;;;;;;5092269;28;20252;-53
2022/11/08 11:22:52;;;;;;;2.53;2.33;;;19.80;47.00;;;;;;5090577;28;20457;-52
2022/11/08 11:25:22;;;;;;;3.10;2.47;;;19.80;45.20;;;;;;5089665;28;20223;-54
2022/11/08 11:27:57;;;;;;;5.13;2.00;;;19.80;45.20;;;;;;5090047;28;20662;-53
2022/11/08 11:30:22;;;;;;;2.03;1.83;;;19.80;44.50;;;;;;5092299;28;20436;-49
2022/11/08 11:33:00;;;;;;;2.87;2.67;;;19.90;44.40;;;;;;5090669;28;20789;-51
2022/11/08 11:35:50;;;;;;;3.87;2.10;;;20.10;44.30;;;;;;5093048;28;20195;-49
2022/11/08 11:38:45;;;;;;;2.93;2.27;;;20.10;44.00;;;;;;5084354;28;21004;-49
2022/11/08 11:41:24;;;;;;;2.10;1.90;;;20.20;44.30;;;;;;5080328;28;20460;-50
2022/11/08 11:44:29;;;;;;;2.10;1.90;;;20.30;44.30;;;;;;5082009;28;20811;-52
2022/11/08 11:47:19;;;;;;;3.30;2.77;;;20.40;44.40;;;;;;5091083;28;20488;-51
2022/11/08 11:49:47;;;;;;;2.33;2.03;;;20.50;44.40;;;;;;5081030;28;20488;-52
2022/11/08 11:52:18;;;;;;;3.90;2.40;;;20.50;44.50;;;;;;5088988;28;20541;-52
2022/11/08 11:54:46;;;;;;;5.17;2.30;;;20.40;44.40;;;;;;5088034;28;20441;-52
2022/11/08 11:57:24;;;;;;;1.70;1.60;;;20.30;44.30;;;;;;5085876;28;20446;-54
2022/11/08 11:59:55;;;;;;;2.17;1.97;;;20.30;44.60;;;;;;5088192;28;20819;-52
2022/11/08 12:02:55;;;;;;;3.83;2.30;;;20.30;44.40;;;;;;5093061;28;20570;-53
2022/11/08 12:05:27;;;;;;;2.33;2.00;;;20.30;43.40;;;;;;5090969;28;20445;-53
2022/11/08 12:08:01;;;;;;;2.80;1.77;;;20.30;43.60;;;;;;5089904;28;20496;-53
2022/11/08 12:10:30;;;;;;;2.27;2.03;;;20.10;43.50;;;;;;5089724;28;20462;-52
2022/11/08 12:13:26;;;;;;;2.23;1.77;;;20.20;43.50;;;;;;5093448;28;20429;-51
2022/11/08 12:15:58;;;;;;;4.07;2.30;;;20.10;43.00;;;;;;5091723;28;20847;-50
2022/11/08 12:19:01;;;;;;;2.40;1.80;;;20.20;43.60;;;;;;5093250;28;20456;-50
2022/11/08 12:21:38;;;;;;;3.07;1.70;;;20.20;42.70;;;;;;5091706;28;20484;-49
2022/11/08 12:24:12;;;;;;;3.03;2.13;;;20.30;43.60;;;;;;5106393;28;20960;-49
2022/11/08 12:26:48;;;;;;;2.37;1.60;;;20.40;43.40;;;;;;5089480;28;21005;-49
2022/11/08 12:29:24;;;;;;;1.70;1.60;;;20.40;43.20;;;;;;5088411;28;20471;-49
2022/11/08 12:31:53;;;;;;;2.97;1.77;;;20.80;43.20;;;;;;5089688;28;20943;-50
2022/11/08 12:34:44;;;;;;;2.20;2.00;;;20.80;42.60;;;;;;5093402;28;20522;-50
2022/11/08 12:37:27;;;;;;;2.37;1.70;;;21.00;42.30;;;;;;5080459;28;20499;-52
2022/11/08 12:40:14;;;;;;;2.53;2.03;;;21.10;42.10;;;;;;5085775;28;20441;-52
2022/11/08 12:43:10;;;;;;;1.63;1.53;;;21.20;42.10;;;;;;5089406;28;20950;-49
2022/11/08 12:46:17;;;;;;;2.33;2.00;;;21.30;41.70;;;;;;5087653;28;20448;-50
2022/11/08 12:49:10;;;;;;;2.47;1.80;;;21.40;41.60;;;;;;5088307;28;20834;-49
2022/11/08 12:51:54;;;;;;;5.87;1.90;;;21.70;41.70;;;;;;5088098;28;20449;-53
2022/11/08 12:54:37;;;;;;;3.30;1.63;;;21.80;41.10;;;;;;5089175;28;20532;-51
2022/11/08 12:57:13;;;;;;;2.20;1.50;;;22.10;41.40;;;;;;5088899;28;20445;-52
2022/11/08 12:59:47;;;;;;;1.70;1.33;;;22.40;41.30;;;;;;5091704;28;20400;-52
2022/11/08 13:02:20;;;;;;;2.10;2.00;;;22.50;40.40;;;;;;5096646;28;20447;-51
2022/11/08 13:04:50;;;;;;;4.03;2.73;;;22.70;40.10;;;;;;5081701;28;20513;-51
2022/11/08 13:07:37;;;;;;;2.57;1.90;;;22.50;39.50;;;;;;5086920;28;20472;-52
2022/11/08 13:10:22;;;;;;;3.40;1.50;;;22.60;39.60;;;;;;5096081;28;20437;-51
2022/11/08 13:12:56;;;;;;;2.33;1.80;;;22.60;39.70;;;;;;5086921;28;20536;-49
2022/11/08 13:15:24;;;;;;;1.90;1.80;;;22.50;40.40;;;;;;5092347;28;20528;-48
2022/11/08 13:18:10;;;;;;;2.20;1.73;;;22.40;40.40;;;;;;5083474;28;20528;-52
2022/11/08 13:20:40;;;;;;;3.57;1.60;;;22.50;40.50;;;;;;5086484;28;20441;-55